Time;durP1;ratioP1;P1;durP2;ratioP2;P2;SDS_P1;SDS_P2;PMS_P1;PMS_P2;Temp;Humidity;BMP_temperature;BMP_pressure;BME280_temperature;BME280_humidity;BME280_pressure;Samples;Min_cycle;Max_cycle;Signal;HPM_P1;HPM_P2
2022/11/19 07:59:18;;;;;;;;;;;20.90;99.90;;;;;;5504605;23;20384;-83
2022/11/19 08:01:44;;;;;;;;;;;20.50;99.90;;;;;;4984682;28;19926;-83
2022/11/19 08:04:11;;;;;;;;;;;21.00;99.90;;;;;;4986646;28;19926;-83
2022/11/19 08:06:38;;;;;;;;;;;21.00;99.90;;;;;;4986423;28;20293;-83
2022/11/19 08:09:05;;;;;;;;;;;21.00;99.90;;;;;;4983845;28;19927;-83
2022/11/19 08:11:31;;;;;;;;;;;20.70;99.90;;;;;;4984712;28;19927;-83
2022/11/19 08:13:58;;;;;;;;;;;21.10;99.90;;;;;;5002396;23;19926;-78
2022/11/19 08:19:12;;;;;;;;;;;21.10;99.90;;;;;;4978328;28;19932;-77
2022/11/19 08:21:40;;;;;;;;;;;21.10;99.90;;;;;;4978122;28;19926;-77
2022/11/19 08:24:07;;;;;;;;;;;21.10;99.90;;;;;;4978044;28;19937;-77
2022/11/19 08:26:33;;;;;;;;;;;21.10;99.90;;;;;;4978514;28;19930;-77
2022/11/19 08:29:00;;;;;;;;;;;21.10;99.90;;;;;;4979320;28;20385;-77
2022/11/19 08:31:28;;;;;;;;;;;21.00;99.90;;;;;;4978500;28;19953;-77
2022/11/19 08:33:55;;;;;;;;;;;20.90;99.90;;;;;;4977623;28;20298;-78
2022/11/19 08:36:21;;;;;;;;;;;20.80;99.90;;;;;;4977862;28;19926;-78
2022/11/19 08:38:48;;;;;;;;;;;20.80;99.90;;;;;;4978032;28;20397;-78
2022/11/19 08:43:59;;;;;;;;;;;20.80;99.90;;;;;;4978068;28;20297;-77
2022/11/19 08:46:26;;;;;;;;;;;20.80;99.90;;;;;;4980500;28;19933;-79
2022/11/19 08:48:53;;;;;;;;;;;20.80;99.90;;;;;;4983458;28;19932;-79
2022/11/19 08:51:21;;;;;;;;;;;20.80;99.90;;;;;;4982205;28;20348;-79
2022/11/19 08:53:48;;;;;;;;;;;20.80;99.90;;;;;;4983658;28;19925;-78
2022/11/19 08:56:15;;;;;;;;;;;20.80;99.90;;;;;;4983394;28;19926;-79
2022/11/19 08:58:42;;;;;;;;;;;20.80;99.90;;;;;;4983918;28;19926;-80
2022/11/19 09:01:10;;;;;;;;;;;20.80;99.90;;;;;;4983424;28;19932;-79
2022/11/19 09:03:37;;;;;;;;;;;20.80;99.90;;;;;;4983026;28;19981;-79
2022/11/19 09:06:07;;;;;;;;;;;20.90;99.90;;;;;;4983190;28;19926;-78
2022/11/19 09:08:34;;;;;;;;;;;20.90;99.90;;;;;;4982835;28;19933;-76
2022/11/19 09:11:05;;;;;;;;;;;20.90;99.90;;;;;;4981778;28;19932;-78
2022/11/19 09:13:31;;;;;;;;;;;20.90;99.90;;;;;;4977034;28;20388;-77
2022/11/19 09:15:58;;;;;;;;;;;20.90;99.90;;;;;;4977389;28;19927;-78
2022/11/19 09:18:24;;;;;;;;;;;20.90;99.90;;;;;;4976938;28;20305;-75
2022/11/19 09:20:52;;;;;;;;;;;20.90;99.90;;;;;;4977051;28;19926;-75
2022/11/19 09:23:21;;;;;;;;;;;20.90;99.90;;;;;;4976902;28;19926;-76
2022/11/19 09:25:54;;;;;;;;;;;20.90;99.90;;;;;;4976934;28;19980;-76
2022/11/19 09:28:20;;;;;;;;;;;20.90;99.90;;;;;;4976609;28;19926;-76
2022/11/19 09:30:53;;;;;;;;;;;20.90;99.90;;;;;;4976564;28;19926;-76
2022/11/19 09:33:20;;;;;;;;;;;20.90;99.90;;;;;;4976781;28;19933;-76
2022/11/19 09:35:47;;;;;;;;;;;20.90;99.90;;;;;;4976664;28;19937;-76
2022/11/19 09:38:13;;;;;;;;;;;20.90;99.90;;;;;;4976690;28;19933;-76
2022/11/19 09:40:44;;;;;;;;;;;20.90;99.90;;;;;;4976645;28;19926;-76
2022/11/19 09:43:14;;;;;;;;;;;20.90;99.90;;;;;;4976053;28;19933;-77
2022/11/19 09:45:47;;;;;;;;;;;20.90;99.90;;;;;;4977467;28;19935;-78
2022/11/19 09:48:19;;;;;;;;;;;20.90;99.90;;;;;;4977455;28;19933;-79
2022/11/19 09:50:48;;;;;;;;;;;20.90;99.90;;;;;;4976664;28;19933;-77
2022/11/19 09:53:16;;;;;;;;;;;20.90;99.90;;;;;;4976482;28;19926;-77
2022/11/19 09:55:45;;;;;;;;;;;20.90;99.90;;;;;;4976340;28;19933;-77
2022/11/19 09:58:14;;;;;;;;;;;20.90;99.90;;;;;;4976432;28;19926;-77
2022/11/19 10:00:42;;;;;;;;;;;20.90;99.90;;;;;;4976778;28;19926;-77
2022/11/19 10:03:12;;;;;;;;;;;20.90;99.90;;;;;;4976788;28;19926;-77
2022/11/19 10:05:44;;;;;;;;;;;20.90;99.90;;;;;;4977389;28;19926;-77
2022/11/19 10:08:17;;;;;;;;;;;20.90;99.90;;;;;;4977532;28;19926;-79
2022/11/19 10:10:49;;;;;;;;;;;20.90;99.90;;;;;;4978027;28;19926;-79
2022/11/19 10:13:24;;;;;;;;;;;20.50;99.90;;;;;;4977669;28;19926;-81
2022/11/19 10:16:01;;;;;;;;;;;20.90;99.90;;;;;;4978221;28;19926;-78
2022/11/19 10:18:32;;;;;;;;;;;20.90;99.90;;;;;;4978497;28;19933;-80
2022/11/19 10:21:00;;;;;;;;;;;20.80;99.80;;;;;;4980666;28;19989;-78
2022/11/19 10:23:30;;;;;;;;;;;20.80;99.50;;;;;;4981975;28;19930;-78
2022/11/19 10:26:03;;;;;;;;;;;20.80;99.20;;;;;;4983880;28;19930;-79
2022/11/19 10:28:31;;;;;;;;;;;20.80;99.00;;;;;;4983181;28;20443;-79
2022/11/19 10:31:04;;;;;;;;;;;20.80;98.70;;;;;;4982266;28;19937;-79
2022/11/19 10:33:32;;;;;;;;;;;20.80;98.40;;;;;;4982078;28;19926;-79
2022/11/19 10:36:01;;;;;;;;;;;20.80;98.10;;;;;;4983141;28;19926;-79
2022/11/19 10:38:32;;;;;;;;;;;20.80;98.10;;;;;;4982448;28;19927;-79
2022/11/19 10:41:02;;;;;;;;;;;20.80;97.90;;;;;;4983990;28;20421;-79
2022/11/19 10:43:31;;;;;;;;;;;20.80;97.70;;;;;;4982750;28;19932;-79
2022/11/19 10:45:59;;;;;;;;;;;20.70;97.40;;;;;;4982056;28;19926;-79
2022/11/19 10:48:30;;;;;;;;;;;20.80;97.30;;;;;;4981277;28;20270;-79
2022/11/19 10:50:59;;;;;;;;;;;20.70;97.10;;;;;;4978632;28;19930;-79
2022/11/19 10:53:28;;;;;;;;;;;20.80;97.10;;;;;;4983145;28;20390;-79
2022/11/19 10:55:57;;;;;;;;;;;20.80;97.00;;;;;;4982565;28;19930;-79
2022/11/19 10:58:25;;;;;;;;;;;20.80;96.90;;;;;;4980074;28;19930;-79
2022/11/19 11:00:53;;;;;;;;;;;20.80;96.90;;;;;;4980036;28;20400;-79
2022/11/19 11:03:22;;;;;;;;;;;20.80;96.80;;;;;;4981372;28;19949;-78
2022/11/19 11:05:57;;;;;;;;;;;20.80;96.70;;;;;;4983299;28;19926;-81
2022/11/19 11:08:24;;;;;;;;;;;20.80;96.60;;;;;;4986800;28;19926;-79
2022/11/19 11:10:51;;;;;;;;;;;20.90;96.50;;;;;;4980144;28;19926;-82
2022/11/19 11:16:09;;;;;;;;;;;20.90;96.30;;;;;;4975344;28;20393;-78
2022/11/19 11:18:39;;;;;;;;;;;20.90;96.20;;;;;;4974918;28;19926;-78
2022/11/19 11:21:06;;;;;;;;;;;20.90;96.10;;;;;;4974861;28;20024;-78
2022/11/19 11:23:33;;;;;;;;;;;20.90;95.90;;;;;;4975061;28;19926;-78
2022/11/19 11:26:04;;;;;;;;;;;20.90;95.70;;;;;;4975089;28;19926;-78
2022/11/19 11:28:31;;;;;;;;;;;20.80;95.70;;;;;;4975084;28;19932;-78
2022/11/19 11:30:58;;;;;;;;;;;20.80;95.70;;;;;;4975074;28;19937;-78
2022/11/19 11:33:27;;;;;;;;;;;20.90;95.60;;;;;;4974968;28;19933;-78
2022/11/19 11:35:55;;;;;;;;;;;20.80;95.50;;;;;;4974961;28;19926;-78
2022/11/19 11:38:24;;;;;;;;;;;20.80;95.30;;;;;;4974986;28;19941;-78
2022/11/19 11:40:57;;;;;;;;;;;20.80;95.20;;;;;;4975001;28;19933;-78
2022/11/19 11:43:24;;;;;;;;;;;20.80;95.40;;;;;;4974926;28;20290;-78
2022/11/19 11:45:55;;;;;;;;;;;20.80;95.00;;;;;;4974918;28;19926;-78
2022/11/19 11:48:22;;;;;;;;;;;20.80;94.90;;;;;;4974913;28;20013;-78
2022/11/19 11:50:50;;;;;;;;;;;20.80;94.80;;;;;;4974950;28;20345;-78
2022/11/19 11:53:27;;;;;;;;;;;20.80;94.70;;;;;;4974460;28;20374;-78
2022/11/19 11:55:56;;;;;;;;;;;20.80;94.70;;;;;;4974511;28;20409;-78
2022/11/19 11:58:27;;;;;;;;;;;20.80;94.70;;;;;;4974820;28;19926;-78
2022/11/19 12:00:54;;;;;;;;;;;20.80;94.70;;;;;;4974837;28;19926;-78
2022/11/19 12:03:21;;;;;;;;;;;20.80;94.70;;;;;;4974716;28;19981;-78
2022/11/19 12:05:54;;;;;;;;;;;20.90;94.80;;;;;;4976528;28;19926;-78
2022/11/19 12:08:34;;;;;;;;;;;20.90;94.80;;;;;;4978599;28;19934;-78
2022/11/19 12:11:03;;;;;;;;;;;20.90;94.80;;;;;;4978034;28;20288;-78
2022/11/19 12:13:44;;;;;;;;;;;20.90;94.70;;;;;;4977832;28;19926;-78
2022/11/19 12:16:13;;;;;;;;;;;20.90;94.70;;;;;;4978165;28;19949;-78
2022/11/19 12:18:46;;;;;;;;;;;20.90;94.70;;;;;;4978182;28;19933;-78
2022/11/19 12:21:19;;;;;;;;;;;20.90;94.60;;;;;;4977897;28;19933;-78
2022/11/19 12:23:58;;;;;;;;;;;20.90;94.50;;;;;;4978036;28;19926;-78
2022/11/19 12:26:30;;;;;;;;;;;20.90;94.80;;;;;;4978161;28;19977;-78
2022/11/19 12:29:04;;;;;;;;;;;20.90;94.40;;;;;;4978058;28;19937;-78
2022/11/19 12:31:37;;;;;;;;;;;20.90;94.30;;;;;;4978009;28;19926;-78
2022/11/19 12:34:13;;;;;;;;;;;20.90;94.20;;;;;;4977835;28;19933;-78
2022/11/19 12:36:47;;;;;;;;;;;20.90;94.20;;;;;;4977824;28;19933;-78
2022/11/19 12:39:20;;;;;;;;;;;20.90;94.10;;;;;;4977859;28;20017;-78
2022/11/19 12:41:54;;;;;;;;;;;20.90;94.00;;;;;;4977792;28;19933;-78
2022/11/19 12:44:28;;;;;;;;;;;20.80;93.90;;;;;;4977733;28;19926;-78
2022/11/19 12:46:56;;;;;;;;;;;20.80;93.80;;;;;;4977710;28;19949;-78
2022/11/19 12:49:40;;;;;;;;;;;20.80;93.80;;;;;;4977327;28;20396;-78
2022/11/19 12:52:24;;;;;;;;;;;20.80;93.70;;;;;;4977576;28;19926;-78
2022/11/19 12:54:54;;;;;;;;;;;20.80;93.60;;;;;;4977544;28;19933;-78
2022/11/19 12:57:29;;;;;;;;;;;20.80;93.60;;;;;;4977429;28;19933;-78
2022/11/19 13:00:04;;;;;;;;;;;20.70;93.50;;;;;;4977218;28;19926;-78
2022/11/19 13:02:34;;;;;;;;;;;20.80;93.50;;;;;;4977108;28;20436;-78
2022/11/19 13:05:04;;;;;;;;;;;20.80;93.60;;;;;;4977858;28;19926;-78
2022/11/19 13:07:35;;;;;;;;;;;20.80;93.70;;;;;;4978522;28;19926;-78
2022/11/19 13:10:05;;;;;;;;;;;20.90;93.80;;;;;;4977291;28;19933;-78
2022/11/19 13:12:35;;;;;;;;;;;20.80;93.70;;;;;;4977080;28;19934;-78
2022/11/19 13:15:03;;;;;;;;;;;20.90;93.80;;;;;;4977169;28;20306;-78
2022/11/19 13:17:31;;;;;;;;;;;20.90;93.80;;;;;;4976018;28;19933;-78
2022/11/19 13:20:00;;;;;;;;;;;20.90;93.80;;;;;;4977027;28;19930;-78
2022/11/19 13:22:31;;;;;;;;;;;20.90;93.80;;;;;;4976802;28;19949;-78
2022/11/19 13:25:01;;;;;;;;;;;20.90;93.80;;;;;;4977037;28;19930;-78
2022/11/19 13:27:28;;;;;;;;;;;20.90;93.70;;;;;;4976855;28;19933;-78
2022/11/19 13:29:59;;;;;;;;;;;20.90;93.60;;;;;;4976817;28;19933;-78
2022/11/19 13:32:27;;;;;;;;;;;20.90;93.60;;;;;;4976744;28;19926;-78
2022/11/19 13:34:59;;;;;;;;;;;20.90;93.60;;;;;;4976496;28;19926;-78
2022/11/19 13:37:31;;;;;;;;;;;20.90;93.50;;;;;;4976704;28;19926;-78
2022/11/19 13:40:01;;;;;;;;;;;20.90;93.40;;;;;;4976643;28;20301;-78
2022/11/19 13:45:13;;;;;;;;;;;20.90;93.30;;;;;;4976684;28;19929;-78
2022/11/19 13:47:42;;;;;;;;;;;20.90;93.30;;;;;;4976451;28;20091;-78
2022/11/19 13:50:13;;;;;;;;;;;20.90;93.30;;;;;;4976504;28;19926;-78
2022/11/19 13:52:43;;;;;;;;;;;20.90;93.30;;;;;;4976468;28;19933;-78
2022/11/19 13:55:22;;;;;;;;;;;20.80;93.20;;;;;;4976276;28;19933;-78
2022/11/19 13:57:49;;;;;;;;;;;20.80;93.20;;;;;;4976247;28;19933;-78
2022/11/19 14:00:21;;;;;;;;;;;20.80;93.20;;;;;;4976202;28;19926;-78
2022/11/19 14:02:59;;;;;;;;;;;20.80;93.10;;;;;;4976090;28;19934;-78
2022/11/19 14:05:38;;;;;;;;;;;20.80;93.00;;;;;;4976314;28;19973;-78
2022/11/19 14:08:13;;;;;;;;;;;20.80;93.10;;;;;;4975941;28;19933;-78
2022/11/19 14:10:44;;;;;;;;;;;20.80;93.10;;;;;;4975839;28;19975;-78
2022/11/19 14:13:28;;;;;;;;;;;20.80;93.20;;;;;;4999428;23;19936;-76
2022/11/19 14:27:37;;;;;;;;;;;20.90;93.30;;;;;;4954132;28;20016;-76
2022/11/19 14:30:05;;;;;;;;;;;20.90;93.30;;;;;;4956485;29;19933;-76
2022/11/19 14:32:39;;;;;;;;;;;20.90;93.30;;;;;;4956401;29;19933;-76
2022/11/19 14:35:20;;;;;;;;;;;20.90;93.30;;;;;;4956093;29;20310;-76
2022/11/19 14:37:48;;;;;;;;;;;20.90;93.30;;;;;;4956375;29;19933;-76
2022/11/19 14:40:17;;;;;;;;;;;20.90;93.30;;;;;;4956413;29;19934;-76
2022/11/19 14:46:01;;;;;;;;;;;20.90;93.10;;;;;;4956260;29;19922;-75
2022/11/19 14:48:30;;;;;;;;;;;20.80;93.00;;;;;;4955294;29;19927;-76
2022/11/19 14:50:58;;;;;;;;;;;20.80;93.00;;;;;;4956041;29;19926;-76
2022/11/19 14:53:25;;;;;;;;;;;20.80;92.90;;;;;;4956191;29;19926;-76
2022/11/19 14:55:53;;;;;;;;;;;20.80;92.80;;;;;;4956193;29;19927;-78
2022/11/19 14:58:21;;;;;;;;;;;20.80;92.70;;;;;;4957964;29;20098;-79
2022/11/19 15:00:49;;;;;;;;;;;20.80;92.60;;;;;;4958192;29;19927;-79
2022/11/19 15:03:21;;;;;;;;;;;20.80;92.50;;;;;;4955926;29;19926;-79
2022/11/19 15:05:49;;;;;;;;;;;20.80;92.40;;;;;;4956075;29;19927;-80
2022/11/19 15:08:29;;;;;;;;;;;20.80;92.30;;;;;;4957441;29;19933;-79
2022/11/19 15:11:03;;;;;;;;;;;20.80;92.20;;;;;;4958139;29;19934;-78
2022/11/19 15:13:31;;;;;;;;;;;20.70;92.10;;;;;;4959591;29;19926;-79
2022/11/19 15:16:02;;;;;;;;;;;20.70;92.10;;;;;;4961417;29;19930;-78
2022/11/19 15:18:38;;;;;;;;;;;20.70;92.00;;;;;;4956239;29;19926;-79
2022/11/19 15:21:20;;;;;;;;;;;20.70;91.90;;;;;;4956689;29;19942;-79
2022/11/19 15:23:53;;;;;;;;;;;20.80;91.90;;;;;;4956382;29;19950;-79
2022/11/19 15:26:23;;;;;;;;;;;20.80;91.90;;;;;;4955896;29;19926;-79
2022/11/19 15:28:59;;;;;;;;;;;20.70;91.80;;;;;;4955831;29;19934;-77
2022/11/19 15:31:35;;;;;;;;;;;20.80;91.80;;;;;;4956455;29;19933;-78
2022/11/19 15:34:14;;;;;;;;;;;20.80;91.70;;;;;;4956890;29;19931;-79
2022/11/19 15:36:44;;;;;;;;;;;20.80;91.60;;;;;;4957129;29;19926;-79
2022/11/19 15:39:14;;;;;;;;;;;20.80;91.50;;;;;;4957097;28;19930;-79
2022/11/19 15:41:59;;;;;;;;;;;20.80;91.40;;;;;;4960191;29;19926;-79
2022/11/19 15:44:27;;;;;;;;;;;20.90;91.40;;;;;;4960886;29;20342;-80
2022/11/19 15:46:57;;;;;;;;;;;20.80;91.30;;;;;;4960543;29;19927;-80
2022/11/19 15:49:25;;;;;;;;;;;20.90;91.30;;;;;;4960437;29;20305;-80
2022/11/19 15:51:58;;;;;;;;;;;20.90;91.20;;;;;;4960366;29;20390;-80
2022/11/19 15:54:28;;;;;;;;;;;20.90;91.10;;;;;;4960570;29;19927;-79
2022/11/19 15:56:57;;;;;;;;;;;20.90;91.00;;;;;;4959522;29;19978;-78
2022/11/19 15:59:24;;;;;;;;;;;20.90;91.00;;;;;;4959398;29;19933;-79
2022/11/19 16:01:58;;;;;;;;;;;20.90;90.90;;;;;;4959330;29;19931;-79
2022/11/19 16:04:27;;;;;;;;;;;20.80;90.70;;;;;;4959449;29;19926;-79
2022/11/19 16:06:55;;;;;;;;;;;20.90;90.80;;;;;;4959102;29;19934;-80
2022/11/19 16:09:23;;;;;;;;;;;20.80;90.70;;;;;;4959652;29;20433;-79
2022/11/19 16:17:34;;;;;;;;;;;20.80;90.30;;;;;;4959342;29;20393;-79
2022/11/19 16:20:18;;;;;;;;;;;20.80;90.20;;;;;;4959195;29;19930;-79
2022/11/19 16:22:48;;;;;;;;;;;20.80;90.20;;;;;;4960039;29;19926;-79
2022/11/19 16:25:19;;;;;;;;;;;20.70;90.10;;;;;;4959295;29;20328;-79
2022/11/19 16:27:45;;;;;;;;;;;20.80;90.10;;;;;;4959681;29;19942;-79
2022/11/19 16:30:16;;;;;;;;;;;20.80;90.00;;;;;;4959054;29;19926;-79
2022/11/19 16:32:43;;;;;;;;;;;20.80;90.00;;;;;;4959361;29;20027;-79
2022/11/19 16:35:10;;;;;;;;;;;20.80;89.80;;;;;;4960652;29;19926;-81
2022/11/19 16:37:37;;;;;;;;;;;20.70;89.50;;;;;;4960255;29;19933;-81
2022/11/19 16:40:05;;;;;;;;;;;20.80;89.50;;;;;;4961168;29;19927;-81
2022/11/19 16:42:32;;;;;;;;;;;20.80;89.20;;;;;;4960462;29;19934;-81
2022/11/19 16:45:05;;;;;;;;;;;20.80;89.00;;;;;;4959629;29;20367;-81
2022/11/19 16:47:33;;;;;;;;;;;20.80;88.80;;;;;;4960350;29;19938;-81
2022/11/19 16:50:00;;;;;;;;;;;20.80;88.60;;;;;;4959784;29;19927;-81
2022/11/19 16:52:40;;;;;;;;;;;20.80;88.40;;;;;;4959126;28;19926;-81
2022/11/19 16:55:23;;;;;;;;;;;20.80;88.20;;;;;;4958864;29;20410;-81
2022/11/19 16:57:52;;;;;;;;;;;20.80;88.00;;;;;;4958648;29;19934;-81
2022/11/19 17:00:20;;;;;;;;;;;20.80;87.80;;;;;;4959715;29;20286;-78
2022/11/19 17:02:47;;;;;;;;;;;20.80;87.50;;;;;;4958308;29;20370;-77
2022/11/19 17:05:15;;;;;;;;;;;20.80;87.30;;;;;;4958942;29;19926;-79
2022/11/19 17:07:42;;;;;;;;;;;20.80;87.20;;;;;;4958378;29;20342;-78
2022/11/19 17:10:25;;;;;;;;;;;20.80;86.90;;;;;;4958123;29;19950;-78
2022/11/19 17:12:54;;;;;;;;;;;20.80;86.70;;;;;;4957644;29;20283;-78
2022/11/19 17:15:35;;;;;;;;;;;20.80;86.60;;;;;;4957667;29;19934;-78
2022/11/19 17:18:13;;;;;;;;;;;20.80;87.30;;;;;;4957519;29;20313;-78
2022/11/19 17:20:48;;;;;;;;;;;20.80;86.50;;;;;;4957879;29;19926;-78
2022/11/19 17:23:16;;;;;;;;;;;20.80;86.40;;;;;;4958359;29;19930;-78
2022/11/19 17:25:46;;;;;;;;;;;20.80;86.30;;;;;;4958524;29;20283;-81
2022/11/19 17:28:18;;;;;;;;;;;20.80;86.10;;;;;;4959058;29;19934;-80
2022/11/19 17:30:48;;;;;;;;;;;20.80;86.00;;;;;;4960385;29;19926;-84
2022/11/19 17:33:15;;;;;;;;;;;20.90;86.20;;;;;;4959394;29;19927;-83
2022/11/19 17:35:42;;;;;;;;;;;20.80;86.00;;;;;;4959825;29;19926;-84
2022/11/19 17:38:09;;;;;;;;;;;20.70;85.90;;;;;;4959054;29;19927;-82
2022/11/19 17:40:36;;;;;;;;;;;20.90;86.20;;;;;;4960218;29;19927;-82
2022/11/19 17:45:48;;;;;;;;;;;21.00;86.30;;;;;;4959466;29;19973;-81
2022/11/19 17:48:16;;;;;;;;;;;20.90;86.20;;;;;;4960955;29;19930;-82
2022/11/19 17:50:42;;;;;;;;;;;20.80;86.10;;;;;;4959622;29;19980;-83
2022/11/19 17:53:09;;;;;;;;;;;20.90;86.20;;;;;;4959674;29;19927;-83
2022/11/19 17:55:36;;;;;;;;;;;20.90;86.20;;;;;;4958425;29;19927;-83
2022/11/19 17:58:02;;;;;;;;;;;20.90;86.20;;;;;;4958283;29;20420;-83
2022/11/19 18:00:29;;;;;;;;;;;20.70;85.90;;;;;;4958344;29;19978;-83
2022/11/19 18:02:57;;;;;;;;;;;20.70;85.70;;;;;;4957683;28;19934;-83
2022/11/19 18:05:26;;;;;;;;;;;20.90;85.80;;;;;;4957866;29;20374;-83
2022/11/19 18:07:53;;;;;;;;;;;20.40;85.20;;;;;;4958164;29;19930;-83
2022/11/19 18:10:21;;;;;;;;;;;21.60;86.50;;;;;;4958270;29;19926;-83
2022/11/19 18:12:47;;;;;;;;;;;20.80;85.60;;;;;;4957855;29;19937;-83
2022/11/19 18:15:16;;;;;;;;;;;20.90;85.60;;;;;;4957880;29;19926;-83
2022/11/19 18:17:42;;;;;;;;;;;21.00;85.70;;;;;;4957679;29;19936;-83
2022/11/19 18:20:11;;;;;;;;;;;20.90;85.50;;;;;;4957196;29;19933;-84
2022/11/19 18:22:38;;;;;;;;;;;20.80;85.40;;;;;;4957315;29;19970;-84
2022/11/19 18:25:10;;;;;;;;;;;20.70;85.30;;;;;;4956874;29;20420;-84
2022/11/19 18:27:36;;;;;;;;;;;20.80;85.40;;;;;;4957989;29;19927;-84
2022/11/19 18:30:03;;;;;;;;;;;20.80;85.30;;;;;;4957513;29;19933;-83
2022/11/19 18:32:30;;;;;;;;;;;20.80;85.40;;;;;;4956485;29;19927;-83
2022/11/19 18:34:56;;;;;;;;;;;21.40;86.10;;;;;;4956614;29;19933;-83
2022/11/19 18:37:24;;;;;;;;;;;20.80;85.50;;;;;;4956919;29;19938;-83
2022/11/19 18:39:52;;;;;;;;;;;20.80;85.60;;;;;;4956742;29;19927;-83
2022/11/19 18:42:18;;;;;;;;;;;20.80;85.70;;;;;;4956473;29;19931;-83
2022/11/19 18:44:44;;;;;;;;;;;20.90;85.90;;;;;;4956507;29;19933;-83
2022/11/19 18:47:11;;;;;;;;;;;20.90;86.10;;;;;;4956655;29;19923;-83
2022/11/19 18:49:38;;;;;;;;;;;20.90;86.10;;;;;;4956925;29;19926;-83
2022/11/19 18:52:07;;;;;;;;;;;20.90;86.00;;;;;;4956291;29;20378;-83
2022/11/19 18:54:35;;;;;;;;;;;20.80;85.90;;;;;;4956617;29;19930;-83
2022/11/19 18:57:01;;;;;;;;;;;20.90;86.00;;;;;;4956272;29;20378;-83
2022/11/19 18:59:28;;;;;;;;;;;21.00;86.00;;;;;;4956529;29;19933;-83
2022/11/19 19:01:55;;;;;;;;;;;20.90;86.60;;;;;;4958516;29;19930;-82
2022/11/19 19:04:22;;;;;;;;;;;20.90;86.00;;;;;;4957150;29;20390;-83
2022/11/19 19:06:49;;;;;;;;;;;21.00;86.10;;;;;;4957255;29;20451;-81
2022/11/19 19:09:18;;;;;;;;;;;21.20;86.40;;;;;;4957137;29;19926;-82
2022/11/19 19:14:31;;;;;;;;;;;20.90;86.00;;;;;;4956031;29;19934;-82
2022/11/19 19:16:57;;;;;;;;;;;20.80;85.90;;;;;;4956312;29;20418;-82
2022/11/19 19:19:24;;;;;;;;;;;20.80;85.80;;;;;;4956474;29;20292;-84
2022/11/19 19:21:50;;;;;;;;;;;20.60;85.60;;;;;;4957521;29;19926;-82
2022/11/19 19:24:17;;;;;;;;;;;20.80;86.60;;;;;;4957761;29;19926;-82
2022/11/19 19:26:44;;;;;;;;;;;20.80;86.00;;;;;;4958208;29;19930;-82
2022/11/19 19:29:11;;;;;;;;;;;20.80;86.00;;;;;;4958317;29;19927;-82
2022/11/19 19:31:38;;;;;;;;;;;20.80;86.00;;;;;;4958156;29;19926;-82
2022/11/19 19:34:05;;;;;;;;;;;20.70;85.90;;;;;;4958160;29;19926;-82
2022/11/19 19:36:32;;;;;;;;;;;20.80;86.00;;;;;;4958031;29;19926;-82
2022/11/19 19:38:58;;;;;;;;;;;20.80;86.00;;;;;;4958061;29;20328;-81
2022/11/19 19:41:26;;;;;;;;;;;20.80;86.00;;;;;;4957583;29;20398;-83
2022/11/19 19:43:53;;;;;;;;;;;20.80;86.00;;;;;;4956915;29;19927;-83
2022/11/19 19:46:22;;;;;;;;;;;20.90;86.20;;;;;;4957029;29;20299;-83
2022/11/19 19:48:50;;;;;;;;;;;20.10;85.30;;;;;;4958163;29;19927;-82
2022/11/19 19:51:17;;;;;;;;;;;20.90;86.20;;;;;;4957963;29;19926;-82
2022/11/19 19:53:44;;;;;;;;;;;20.90;86.20;;;;;;4957761;29;19930;-82
2022/11/19 19:56:12;;;;;;;;;;;20.90;86.20;;;;;;4958036;29;19926;-82
2022/11/19 19:58:39;;;;;;;;;;;20.80;86.10;;;;;;4957663;29;19927;-82
2022/11/19 20:01:06;;;;;;;;;;;20.90;86.20;;;;;;4957300;29;20394;-82
2022/11/19 20:03:34;;;;;;;;;;;20.80;86.00;;;;;;4958030;29;19927;-82
2022/11/19 20:06:01;;;;;;;;;;;20.80;86.00;;;;;;4958015;29;19927;-82
2022/11/19 20:08:27;;;;;;;;;;;20.80;86.10;;;;;;4958064;29;19927;-82
2022/11/19 20:10:54;;;;;;;;;;;20.80;86.00;;;;;;4956817;29;19938;-83
2022/11/19 20:13:27;;;;;;;;;;;20.80;86.00;;;;;;4957807;29;20298;-83
2022/11/19 20:15:54;;;;;;;;;;;20.80;86.00;;;;;;4958960;29;19926;-82
2022/11/19 20:18:21;;;;;;;;;;;20.90;86.20;;;;;;4958426;29;19927;-82
2022/11/19 20:20:49;;;;;;;;;;;20.80;86.00;;;;;;4958267;29;19926;-82
2022/11/19 20:23:15;;;;;;;;;;;20.80;86.10;;;;;;4958072;29;20047;-81
2022/11/19 20:25:42;;;;;;;;;;;21.00;86.30;;;;;;4956796;28;19926;-82
2022/11/19 20:28:09;;;;;;;;;;;20.70;85.90;;;;;;4960569;29;19927;-82
2022/11/19 20:30:35;;;;;;;;;;;20.80;86.00;;;;;;4960954;29;19927;-83
2022/11/19 20:33:02;;;;;;;;;;;20.80;86.00;;;;;;4961245;29;20342;-83
2022/11/19 20:35:29;;;;;;;;;;;20.80;86.00;;;;;;4961359;29;19934;-82
2022/11/19 20:37:56;;;;;;;;;;;20.70;86.00;;;;;;4960411;29;20297;-83
2022/11/19 20:40:23;;;;;;;;;;;20.80;86.00;;;;;;4959375;29;19927;-84
2022/11/19 20:45:34;;;;;;;;;;;20.90;86.20;;;;;;4963975;29;19966;-82
2022/11/19 20:48:00;;;;;;;;;;;20.80;86.00;;;;;;4963156;29;19934;-82
2022/11/19 20:50:27;;;;;;;;;;;20.80;86.00;;;;;;4964545;29;19927;-82
2022/11/19 20:52:54;;;;;;;;;;;20.80;86.10;;;;;;4964384;29;19927;-82
2022/11/19 20:55:21;;;;;;;;;;;20.90;86.40;;;;;;4964219;29;19927;-82
2022/11/19 20:57:48;;;;;;;;;;;20.80;86.30;;;;;;4963340;29;19934;-82
2022/11/19 21:00:15;;;;;;;;;;;20.80;86.30;;;;;;4962655;29;19927;-82
2022/11/19 21:02:42;;;;;;;;;;;20.80;86.30;;;;;;4962883;29;19927;-81
2022/11/19 21:05:09;;;;;;;;;;;20.80;86.50;;;;;;4961891;29;19926;-82
2022/11/19 21:07:35;;;;;;;;;;;20.80;86.60;;;;;;4960999;29;19935;-82
2022/11/19 21:10:02;;;;;;;;;;;20.80;86.70;;;;;;4961773;29;19933;-82
2022/11/19 21:12:30;;;;;;;;;;;20.90;86.90;;;;;;4960343;29;19927;-82
2022/11/19 21:14:56;;;;;;;;;;;20.90;86.80;;;;;;4960637;29;19927;-83
2022/11/19 21:17:23;;;;;;;;;;;20.80;86.70;;;;;;4959224;29;20310;-82
2022/11/19 21:19:50;;;;;;;;;;;20.90;86.80;;;;;;4960496;29;19926;-82
2022/11/19 21:22:17;;;;;;;;;;;20.80;86.70;;;;;;4960696;29;19949;-83
2022/11/19 21:24:43;;;;;;;;;;;20.80;86.70;;;;;;4960752;29;19926;-82
2022/11/19 21:27:10;;;;;;;;;;;20.70;86.60;;;;;;4959395;29;19926;-82
2022/11/19 21:29:38;;;;;;;;;;;20.80;86.70;;;;;;4960539;29;19926;-82
2022/11/19 21:32:05;;;;;;;;;;;20.80;86.70;;;;;;4959863;29;19930;-82
2022/11/19 21:34:32;;;;;;;;;;;20.80;86.60;;;;;;4959224;29;19934;-82
2022/11/19 21:36:59;;;;;;;;;;;20.80;86.60;;;;;;4962361;28;19926;-81
2022/11/19 21:39:25;;;;;;;;;;;20.80;86.70;;;;;;4962118;29;19931;-82
2022/11/19 21:41:52;;;;;;;;;;;21.40;87.50;;;;;;4961815;29;19933;-80
2022/11/19 21:44:19;;;;;;;;;;;20.80;86.90;;;;;;4963751;29;19933;-80
2022/11/19 21:46:47;;;;;;;;;;;20.80;87.00;;;;;;4963308;29;20287;-80
2022/11/19 21:49:13;;;;;;;;;;;20.80;87.20;;;;;;4963227;29;19927;-80
2022/11/19 21:51:40;;;;;;;;;;;20.80;87.40;;;;;;4964338;29;19927;-80
2022/11/19 21:54:06;;;;;;;;;;;20.80;87.60;;;;;;4963250;29;19926;-80
2022/11/19 21:56:33;;;;;;;;;;;20.80;87.80;;;;;;4963318;29;19926;-80
2022/11/19 21:59:00;;;;;;;;;;;20.90;88.00;;;;;;4963202;29;19926;-80
2022/11/19 22:01:26;;;;;;;;;;;20.90;88.10;;;;;;4961452;29;19930;-80
2022/11/19 22:03:55;;;;;;;;;;;20.90;88.40;;;;;;4962098;29;19976;-80
2022/11/19 22:06:21;;;;;;;;;;;20.90;88.30;;;;;;4961825;29;19934;-80
2022/11/19 22:08:48;;;;;;;;;;;20.70;88.30;;;;;;4963623;29;19933;-80
2022/11/19 22:11:30;;;;;;;;;;;20.90;88.50;;;;;;4962181;29;20054;-80
2022/11/19 22:13:57;;;;;;;;;;;20.90;88.60;;;;;;4960746;29;19982;-80
2022/11/19 22:16:24;;;;;;;;;;;20.90;88.60;;;;;;4960967;29;19927;-80
2022/11/19 22:18:50;;;;;;;;;;;20.90;88.80;;;;;;4961262;29;19937;-80
2022/11/19 22:21:18;;;;;;;;;;;20.90;88.90;;;;;;4960856;29;19927;-80
2022/11/19 22:23:45;;;;;;;;;;;20.90;88.70;;;;;;4959477;29;19962;-80
2022/11/19 22:26:12;;;;;;;;;;;20.90;88.90;;;;;;4960365;29;19932;-80
2022/11/19 22:28:39;;;;;;;;;;;20.60;88.60;;;;;;4957962;29;20309;-80
2022/11/19 22:31:06;;;;;;;;;;;20.90;88.90;;;;;;4957504;29;20365;-80
2022/11/19 22:33:33;;;;;;;;;;;20.80;88.80;;;;;;4957745;29;19926;-80
2022/11/19 22:36:00;;;;;;;;;;;20.80;88.90;;;;;;4958645;29;19934;-80
2022/11/19 22:38:28;;;;;;;;;;;20.80;88.90;;;;;;4958508;29;20025;-80
2022/11/19 22:41:00;;;;;;;;;;;20.80;89.00;;;;;;4960902;29;20388;-80
2022/11/19 22:43:29;;;;;;;;;;;20.80;89.10;;;;;;4960721;29;19934;-81
2022/11/19 22:45:55;;;;;;;;;;;20.80;89.10;;;;;;4960280;29;19930;-80
2022/11/19 22:48:22;;;;;;;;;;;20.80;89.60;;;;;;4960100;29;19927;-80
2022/11/19 22:50:49;;;;;;;;;;;20.80;89.50;;;;;;4960246;28;19933;-80
2022/11/19 22:53:16;;;;;;;;;;;20.80;89.70;;;;;;4962353;29;19936;-80
2022/11/19 22:55:44;;;;;;;;;;;20.80;90.00;;;;;;4961805;29;19927;-80
2022/11/19 22:58:10;;;;;;;;;;;20.90;90.10;;;;;;4961084;29;19926;-79
2022/11/19 23:00:38;;;;;;;;;;;20.90;90.30;;;;;;4960357;29;20437;-79
2022/11/19 23:03:05;;;;;;;;;;;20.90;90.30;;;;;;4959962;29;19932;-80
2022/11/19 23:05:31;;;;;;;;;;;20.90;90.50;;;;;;4958880;29;19926;-80